Wetterdaten: Donnerstag, 18.02.2021
Datum Zeit Temp. A. Feuchte A. Luftdruck Regen Wind Richtung Richtung Sonnenschein UV Solar Windben
18.02.2021 00:00 8,2 C 81 % 1017,5 hPa 0,0 mm 0,0 km/h (0 Bft) N 0 0 min 0 UV-I 0 W/m 0,0 km/h (0 Bft)
18.02.2021 00:10 8,2 C 81 % 1017,4 hPa 0,0 mm 0,0 km/h (0 Bft) N 0 0 min 0 UV-I 0 W/m 1,6 km/h (1 Bft)
18.02.2021 00:20 8,2 C 81 % 1017,3 hPa 0,0 mm 0,0 km/h (0 Bft) N 0 0 min 0 UV-I 0 W/m 6,4 km/h (2 Bft)
18.02.2021 00:30 8,2 C 81 % 1017,3 hPa 0,0 mm 1,6 km/h (1 Bft) S 180 0 min 0 UV-I 0 W/m 6,4 km/h (2 Bft)
18.02.2021 00:40 8,2 C 81 % 1017,3 hPa 0,0 mm 0,0 km/h (0 Bft) N 0 0 min 0 UV-I 0 W/m 0,0 km/h (0 Bft)
18.02.2021 00:50 8,2 C 81 % 1017,2 hPa 0,0 mm 0,0 km/h (0 Bft) N 0 0 min 0 UV-I 0 W/m 0,0 km/h (0 Bft)
18.02.2021 01:00 8,1 C 81 % 1017,3 hPa 0,0 mm 0,0 km/h (0 Bft) N 0 0 min 0 UV-I 0 W/m 0,0 km/h (0 Bft)
18.02.2021 01:10 7,9 C 81 % 1017,2 hPa 0,0 mm 0,0 km/h (0 Bft) N 0 0 min 0 UV-I 0 W/m 0,0 km/h (0 Bft)
18.02.2021 01:20 7,8 C 81 % 1017,2 hPa 0,0 mm 0,0 km/h (0 Bft) N 0 0 min 0 UV-I 0 W/m 0,0 km/h (0 Bft)
18.02.2021 01:30 7,8 C 82 % 1017,2 hPa 0,0 mm 0,0 km/h (0 Bft) N 0 0 min 0 UV-I 0 W/m 0,0 km/h (0 Bft)
18.02.2021 01:40 7,7 C 82 % 1017,2 hPa 0,0 mm 0,0 km/h (0 Bft) N 0 0 min 0 UV-I 0 W/m 0,0 km/h (0 Bft)
18.02.2021 01:50 7,6 C 82 % 1017,2 hPa 0,0 mm 0,0 km/h (0 Bft) N 0 0 min 0 UV-I 0 W/m 0,0 km/h (0 Bft)
18.02.2021 02:00 7,4 C 83 % 1017,2 hPa 0,0 mm 0,0 km/h (0 Bft) N 0 0 min 0 UV-I 0 W/m 0,0 km/h (0 Bft)
18.02.2021 02:10 7,3 C 83 % 1017,1 hPa 0,0 mm 0,0 km/h (0 Bft) N 0 0 min 0 UV-I 0 W/m 3,2 km/h (1 Bft)
18.02.2021 02:20 7,2 C 83 % 1017,1 hPa 0,0 mm 0,0 km/h (0 Bft) N 0 0 min 0 UV-I 0 W/m 0,0 km/h (0 Bft)
18.02.2021 02:30 7,2 C 83 % 1017,1 hPa 0,0 mm 0,0 km/h (0 Bft) N 0 0 min 0 UV-I 0 W/m 0,0 km/h (0 Bft)
18.02.2021 02:40 7,1 C 83 % 1017,0 hPa 0,0 mm 0,0 km/h (0 Bft) N 0 0 min 0 UV-I 0 W/m 0,0 km/h (0 Bft)
18.02.2021 02:50 6,9 C 84 % 1017,0 hPa 0,0 mm 0,0 km/h (0 Bft) N 0 0 min 0 UV-I 0 W/m 0,0 km/h (0 Bft)
18.02.2021 03:00 6,8 C 84 % 1017,0 hPa 0,0 mm 0,0 km/h (0 Bft) N 0 0 min 0 UV-I 0 W/m 0,0 km/h (0 Bft)
18.02.2021 03:10 6,7 C 84 % 1016,7 hPa 0,0 mm 0,0 km/h (0 Bft) N 0 0 min 0 UV-I 0 W/m 0,0 km/h (0 Bft)
18.02.2021 03:20 6,5 C 84 % 1016,6 hPa 0,0 mm 0,0 km/h (0 Bft) N 0 0 min 0 UV-I 0 W/m 0,0 km/h (0 Bft)
18.02.2021 03:30 6,3 C 85 % 1016,6 hPa 0,0 mm 0,0 km/h (0 Bft) N 0 0 min 0 UV-I 0 W/m 0,0 km/h (0 Bft)
18.02.2021 03:40 6,2 C 85 % 1016,5 hPa 0,0 mm 0,0 km/h (0 Bft) N 0 0 min 0 UV-I 0 W/m 0,0 km/h (0 Bft)
18.02.2021 03:50 6,2 C 85 % 1016,4 hPa 0,0 mm 0,0 km/h (0 Bft) N 0 0 min 0 UV-I 0 W/m 0,0 km/h (0 Bft)
18.02.2021 04:00 6,0 C 85 % 1016,4 hPa 0,0 mm 0,0 km/h (0 Bft) N 0 0 min 0 UV-I 0 W/m 0,0 km/h (0 Bft)
18.02.2021 04:10 5,9 C 86 % 1016,4 hPa 0,0 mm 0,0 km/h (0 Bft) N 0 0 min 0 UV-I 0 W/m 0,0 km/h (0 Bft)
18.02.2021 04:20 5,7 C 86 % 1016,4 hPa 0,0 mm 0,0 km/h (0 Bft) N 0 0 min 0 UV-I 0 W/m 0,0 km/h (0 Bft)
18.02.2021 04:30 5,6 C 86 % 1016,4 hPa 0,0 mm 0,0 km/h (0 Bft) N 0 0 min 0 UV-I 0 W/m 0,0 km/h (0 Bft)
18.02.2021 04:40 5,4 C 86 % 1016,4 hPa 0,0 mm 0,0 km/h (0 Bft) N 0 0 min 0 UV-I 0 W/m 0,0 km/h (0 Bft)
18.02.2021 04:50 5,3 C 86 % 1016,3 hPa 0,0 mm 0,0 km/h (0 Bft) N 0 0 min 0 UV-I 0 W/m 0,0 km/h (0 Bft)
18.02.2021 05:00 5,2 C 87 % 1016,3 hPa 0,0 mm 0,0 km/h (0 Bft) N 0 0 min 0 UV-I 0 W/m 1,6 km/h (1 Bft)
18.02.2021 05:10 5,1 C 87 % 1016,3 hPa 0,0 mm 0,0 km/h (0 Bft) N 0 0 min 0 UV-I 0 W/m 3,2 km/h (1 Bft)
18.02.2021 05:20 5,1 C 88 % 1016,0 hPa 0,0 mm 0,0 km/h (0 Bft) N 0 0 min 0 UV-I 0 W/m 6,4 km/h (2 Bft)
18.02.2021 05:30 5,1 C 88 % 1015,8 hPa 0,0 mm 1,6 km/h (1 Bft) SO 135 0 min 0 UV-I 0 W/m 8,0 km/h (2 Bft)
18.02.2021 05:40 5,1 C 88 % 1015,8 hPa 0,0 mm 1,6 km/h (1 Bft) SO 135 0 min 0 UV-I 0 W/m 8,0 km/h (2 Bft)
18.02.2021 05:50 5,1 C 88 % 1015,7 hPa 0,0 mm 1,6 km/h (1 Bft) S-SO 158 0 min 0 UV-I 0 W/m 8,0 km/h (2 Bft)
18.02.2021 06:00 5,2 C 89 % 1015,7 hPa 0,0 mm 4,8 km/h (1 Bft) S-SO 158 0 min 0 UV-I 0 W/m 19,3 km/h (3 Bft)
18.02.2021 06:10 5,3 C 88 % 1015,7 hPa 0,0 mm 3,2 km/h (1 Bft) SO 135 0 min 0 UV-I 0 W/m 11,3 km/h (2 Bft)
18.02.2021 06:20 5,4 C 88 % 1015,7 hPa 0,0 mm 4,8 km/h (1 Bft) S-SO 158 0 min 0 UV-I 0 W/m 14,5 km/h (3 Bft)
18.02.2021 06:30 5,4 C 88 % 1015,6 hPa 0,0 mm 1,6 km/h (1 Bft) S-SO 158 0 min 0 UV-I 0 W/m 11,3 km/h (2 Bft)
18.02.2021 06:40 5,3 C 87 % 1015,5 hPa 0,0 mm 1,6 km/h (1 Bft) SO 135 0 min 0 UV-I 0 W/m 8,0 km/h (2 Bft)
18.02.2021 06:50 5,3 C 87 % 1015,5 hPa 0,0 mm 4,8 km/h (1 Bft) S-SO 158 0 min 0 UV-I 0 W/m 16,1 km/h (3 Bft)
18.02.2021 07:00 5,3 C 87 % 1015,3 hPa 0,0 mm 1,6 km/h (1 Bft) SO 135 0 min 0 UV-I 0 W/m 9,7 km/h (2 Bft)
18.02.2021 07:10 5,3 C 87 % 1015,3 hPa 0,0 mm 1,6 km/h (1 Bft) SO 135 0 min 0 UV-I 0 W/m 11,3 km/h (2 Bft)
18.02.2021 07:20 5,3 C 87 % 1015,3 hPa 0,0 mm 3,2 km/h (1 Bft) SO 135 0 min 0 UV-I 0 W/m 17,7 km/h (3 Bft)
18.02.2021 07:30 5,2 C 87 % 1015,3 hPa 0,0 mm 3,2 km/h (1 Bft) S 180 0 min 0 UV-I 0 W/m 11,3 km/h (2 Bft)
18.02.2021 07:40 5,2 C 87 % 1015,4 hPa 0,0 mm 3,2 km/h (1 Bft) SO 135 0 min 0 UV-I 0 W/m 16,1 km/h (3 Bft)
18.02.2021 07:50 5,1 C 87 % 1015,5 hPa 0,0 mm 4,8 km/h (1 Bft) S-SO 158 0 min 0 UV-I 3 W/m 17,7 km/h (3 Bft)
18.02.2021 08:00 5,1 C 87 % 1015,6 hPa 0,0 mm 1,6 km/h (1 Bft) SO 135 0 min 0 UV-I 11 W/m 14,5 km/h (3 Bft)
18.02.2021 08:10 5,0 C 87 % 1015,4 hPa 0,0 mm 0,0 km/h (0 Bft) N 0 0 min 0 UV-I 20 W/m 9,7 km/h (2 Bft)
18.02.2021 08:20 5,0 C 88 % 1015,4 hPa 0,0 mm 1,6 km/h (1 Bft) O-SO 113 0 min 0 UV-I 27 W/m 9,7 km/h (2 Bft)
18.02.2021 08:30 5,0 C 88 % 1015,4 hPa 0,0 mm 1,6 km/h (1 Bft) SO 135 0 min 0 UV-I 33 W/m 8,0 km/h (2 Bft)
18.02.2021 08:40 5,1 C 88 % 1015,1 hPa 0,0 mm 3,2 km/h (1 Bft) O-SO 113 0 min 0 UV-I 43 W/m 16,1 km/h (3 Bft)
18.02.2021 08:50 5,2 C 88 % 1015,0 hPa 0,0 mm 1,6 km/h (1 Bft) O-SO 113 0 min 0 UV-I 46 W/m 11,3 km/h (2 Bft)
18.02.2021 09:00 5,3 C 89 % 1015,0 hPa 0,0 mm 1,6 km/h (1 Bft) S-SO 158 0 min 0 UV-I 52 W/m 8,0 km/h (2 Bft)
18.02.2021 09:10 5,5 C 88 % 1014,9 hPa 0,0 mm 3,2 km/h (1 Bft) O-SO 113 0 min 0 UV-I 63 W/m 16,1 km/h (3 Bft)
18.02.2021 09:20 5,7 C 88 % 1014,8 hPa 0,0 mm 3,2 km/h (1 Bft) O-SO 113 0 min 0 UV-I 76 W/m 11,3 km/h (2 Bft)
18.02.2021 09:30 5,8 C 88 % 1014,4 hPa 0,0 mm 4,8 km/h (1 Bft) O 90 0 min 0 UV-I 91 W/m 11,3 km/h (2 Bft)
18.02.2021 09:40 6,1 C 87 % 1014,1 hPa 0,0 mm 3,2 km/h (1 Bft) O 90 0 min 0 UV-I 105 W/m 9,7 km/h (2 Bft)
18.02.2021 09:50 6,2 C 87 % 1014,1 hPa 0,0 mm 1,6 km/h (1 Bft) O-SO 113 0 min 1 UV-I 112 W/m 9,7 km/h (2 Bft)
18.02.2021 10:00 6,4 C 86 % 1013,9 hPa 0,0 mm 3,2 km/h (1 Bft) O-SO 113 0 min 1 UV-I 133 W/m 11,3 km/h (2 Bft)
18.02.2021 10:10 6,8 C 85 % 1013,7 hPa 0,0 mm 3,2 km/h (1 Bft) O 90 0 min 1 UV-I 170 W/m 11,3 km/h (2 Bft)
18.02.2021 10:20 7,3 C 83 % 1013,6 hPa 0,0 mm 4,8 km/h (1 Bft) O-SO 113 0 min 1 UV-I 167 W/m 17,7 km/h (3 Bft)
18.02.2021 10:30 7,6 C 81 % 1013,4 hPa 0,0 mm 4,8 km/h (1 Bft) S-SO 158 0 min 1 UV-I 180 W/m 14,5 km/h (3 Bft)
18.02.2021 10:40 7,9 C 80 % 1013,4 hPa 0,0 mm 4,8 km/h (1 Bft) SO 135 0 min 1 UV-I 165 W/m 17,7 km/h (3 Bft)
18.02.2021 10:50 8,0 C 80 % 1013,2 hPa 0,0 mm 6,4 km/h (2 Bft) SO 135 0 min 1 UV-I 165 W/m 17,7 km/h (3 Bft)
18.02.2021 11:00 8,1 C 80 % 1013,1 hPa 0,0 mm 4,8 km/h (1 Bft) SO 135 0 min 1 UV-I 171 W/m 16,1 km/h (3 Bft)
18.02.2021 11:10 8,2 C 80 % 1013,0 hPa 0,0 mm 6,4 km/h (2 Bft) SO 135 0 min 1 UV-I 177 W/m 22,5 km/h (4 Bft)
18.02.2021 11:20 8,3 C 79 % 1013,0 hPa 0,0 mm 4,8 km/h (1 Bft) O-SO 113 0 min 1 UV-I 187 W/m 19,3 km/h (3 Bft)
18.02.2021 11:30 8,5 C 79 % 1013,1 hPa 0,0 mm 4,8 km/h (1 Bft) SO 135 0 min 1 UV-I 158 W/m 17,7 km/h (3 Bft)
18.02.2021 11:40 8,6 C 78 % 1012,9 hPa 0,0 mm 3,2 km/h (1 Bft) O-SO 113 0 min 1 UV-I 163 W/m 16,1 km/h (3 Bft)
18.02.2021 11:50 8,6 C 78 % 1013,0 hPa 0,0 mm 3,2 km/h (1 Bft) S-SO 158 0 min 1 UV-I 178 W/m 16,1 km/h (3 Bft)
18.02.2021 12:00 8,7 C 77 % 1013,0 hPa 0,0 mm 3,2 km/h (1 Bft) O-SO 113 0 min 1 UV-I 163 W/m 11,3 km/h (2 Bft)
18.02.2021 12:10 8,8 C 77 % 1012,8 hPa 0,0 mm 3,2 km/h (1 Bft) S-SO 158 0 min 1 UV-I 151 W/m 11,3 km/h (2 Bft)
18.02.2021 12:20 8,9 C 77 % 1012,2 hPa 0,0 mm 4,8 km/h (1 Bft) O-SO 113 0 min 1 UV-I 171 W/m 11,3 km/h (2 Bft)
18.02.2021 12:30 9,1 C 76 % 1012,1 hPa 0,0 mm 4,8 km/h (1 Bft) SO 135 0 min 1 UV-I 177 W/m 17,7 km/h (3 Bft)
18.02.2021 12:40 9,1 C 75 % 1012,0 hPa 0,0 mm 6,4 km/h (2 Bft) SO 135 0 min 1 UV-I 165 W/m 19,3 km/h (3 Bft)
18.02.2021 12:50 9,1 C 75 % 1011,5 hPa 0,0 mm 6,4 km/h (2 Bft) S-SO 158 0 min 1 UV-I 196 W/m 19,3 km/h (3 Bft)
18.02.2021 13:00 9,2 C 74 % 1011,4 hPa 0,0 mm 6,4 km/h (2 Bft) SO 135 0 min 1 UV-I 216 W/m 22,5 km/h (4 Bft)
18.02.2021 13:10 9,3 C 74 % 1011,3 hPa 0,0 mm 6,4 km/h (2 Bft) O-SO 113 0 min 1 UV-I 175 W/m 24,1 km/h (4 Bft)
18.02.2021 13:20 9,3 C 73 % 1011,3 hPa 0,0 mm 8,0 km/h (2 Bft) SO 135 0 min 1 UV-I 168 W/m 22,5 km/h (4 Bft)
18.02.2021 13:30 9,3 C 73 % 1011,1 hPa 0,0 mm 6,4 km/h (2 Bft) SO 135 0 min 1 UV-I 165 W/m 24,1 km/h (4 Bft)
18.02.2021 13:40 9,3 C 73 % 1010,9 hPa 0,0 mm 4,8 km/h (1 Bft) SO 135 0 min 1 UV-I 142 W/m 16,1 km/h (3 Bft)
18.02.2021 13:50 9,3 C 73 % 1010,6 hPa 0,0 mm 3,2 km/h (1 Bft) SO 135 0 min 1 UV-I 128 W/m 19,3 km/h (3 Bft)
18.02.2021 14:00 9,2 C 73 % 1010,4 hPa 0,0 mm 6,4 km/h (2 Bft) SO 135 0 min 1 UV-I 122 W/m 20,9 km/h (4 Bft)
18.02.2021 14:10 9,1 C 73 % 1010,2 hPa 0,0 mm 4,8 km/h (1 Bft) SO 135 0 min 1 UV-I 109 W/m 35,4 km/h (5 Bft)
18.02.2021 14:20 8,9 C 73 % 1010,0 hPa 0,0 mm 6,4 km/h (2 Bft) S-SO 158 0 min 1 UV-I 92 W/m 29,0 km/h (5 Bft)
18.02.2021 14:30 8,8 C 74 % 1009,9 hPa 0,0 mm 4,8 km/h (1 Bft) O-SO 113 0 min 0 UV-I 78 W/m 19,3 km/h (3 Bft)
18.02.2021 14:40 8,7 C 74 % 1009,8 hPa 0,0 mm 8,0 km/h (2 Bft) O-SO 113 0 min 0 UV-I 68 W/m 30,6 km/h (5 Bft)
18.02.2021 14:50 8,5 C 75 % 1009,8 hPa 0,0 mm 4,8 km/h (1 Bft) O-SO 113 0 min 0 UV-I 59 W/m 30,6 km/h (5 Bft)
18.02.2021 15:00 8,4 C 76 % 1009,7 hPa 0,0 mm 6,4 km/h (2 Bft) O-SO 113 0 min 0 UV-I 68 W/m 22,5 km/h (4 Bft)
18.02.2021 15:10 8,3 C 76 % 1009,6 hPa 0,0 mm 4,8 km/h (1 Bft) O 90 0 min 0 UV-I 69 W/m 19,3 km/h (3 Bft)
18.02.2021 15:20 8,2 C 76 % 1009,6 hPa 0,0 mm 4,8 km/h (1 Bft) O 90 0 min 0 UV-I 63 W/m 17,7 km/h (3 Bft)
18.02.2021 15:30 8,2 C 77 % 1009,5 hPa 0,0 mm 4,8 km/h (1 Bft) O 90 0 min 0 UV-I 57 W/m 20,9 km/h (4 Bft)
18.02.2021 15:40 8,2 C 77 % 1009,4 hPa 0,0 mm 3,2 km/h (1 Bft) O 90 0 min 0 UV-I 50 W/m 16,1 km/h (3 Bft)
18.02.2021 15:50 8,2 C 77 % 1009,2 hPa 0,0 mm 3,2 km/h (1 Bft) O 90 0 min 0 UV-I 47 W/m 19,3 km/h (3 Bft)
18.02.2021 16:00 8,3 C 76 % 1009,0 hPa 0,0 mm 4,8 km/h (1 Bft) O-SO 113 0 min 0 UV-I 46 W/m 16,1 km/h (3 Bft)
18.02.2021 16:10 8,4 C 76 % 1008,7 hPa 0,0 mm 4,8 km/h (1 Bft) O 90 0 min 0 UV-I 40 W/m 20,9 km/h (4 Bft)
18.02.2021 16:20 8,4 C 76 % 1008,6 hPa 0,0 mm 4,8 km/h (1 Bft) O-SO 113 0 min 0 UV-I 37 W/m 17,7 km/h (3 Bft)
18.02.2021 16:30 8,5 C 75 % 1008,5 hPa 0,0 mm 6,4 km/h (2 Bft) O-SO 113 0 min 0 UV-I 33 W/m 17,7 km/h (3 Bft)
18.02.2021 16:40 8,6 C 75 % 1008,2 hPa 0,0 mm 4,8 km/h (1 Bft) O-SO 113 0 min 0 UV-I 28 W/m 19,3 km/h (3 Bft)
18.02.2021 16:50 8,7 C 74 % 1008,0 hPa 0,0 mm 4,8 km/h (1 Bft) S-SO 158 0 min 0 UV-I 20 W/m 19,3 km/h (3 Bft)
18.02.2021 17:00 8,8 C 74 % 1008,3 hPa 0,0 mm 6,4 km/h (2 Bft) S-SO 158 0 min 0 UV-I 13 W/m 17,7 km/h (3 Bft)
18.02.2021 17:10 8,9 C 73 % 1008,4 hPa 0,0 mm 6,4 km/h (2 Bft) SO 135 0 min 0 UV-I 7 W/m 22,5 km/h (4 Bft)
18.02.2021 17:20 9,0 C 73 % 1008,0 hPa 0,0 mm 6,4 km/h (2 Bft) SO 135 0 min 0 UV-I 0 W/m 19,3 km/h (3 Bft)
18.02.2021 17:30 9,1 C 72 % 1008,3 hPa 0,0 mm 6,4 km/h (2 Bft) S 180 0 min 0 UV-I 0 W/m 29,0 km/h (5 Bft)
18.02.2021 17:40 9,2 C 72 % 1008,4 hPa 0,0 mm 3,2 km/h (1 Bft) SO 135 0 min 0 UV-I 0 W/m 17,7 km/h (3 Bft)
18.02.2021 17:50 9,2 C 73 % 1008,3 hPa 0,0 mm 3,2 km/h (1 Bft) SO 135 0 min 0 UV-I 0 W/m 20,9 km/h (4 Bft)
18.02.2021 18:00 9,2 C 77 % 1007,9 hPa 0,3 mm 3,2 km/h (1 Bft) S 180 0 min 0 UV-I 0 W/m 16,1 km/h (3 Bft)
18.02.2021 18:10 8,9 C 78 % 1007,8 hPa 0,0 mm 3,2 km/h (1 Bft) S 180 0 min 0 UV-I 0 W/m 11,3 km/h (2 Bft)
18.02.2021 18:20 8,7 C 77 % 1007,6 hPa 0,0 mm 4,8 km/h (1 Bft) SO 135 0 min 0 UV-I 0 W/m 20,9 km/h (4 Bft)
18.02.2021 18:30 8,6 C 77 % 1007,2 hPa 0,0 mm 3,2 km/h (1 Bft) SO 135 0 min 0 UV-I 0 W/m 11,3 km/h (2 Bft)
18.02.2021 18:40 8,6 C 77 % 1007,0 hPa 0,0 mm 4,8 km/h (1 Bft) O-SO 113 0 min 0 UV-I 0 W/m 19,3 km/h (3 Bft)
18.02.2021 18:50 8,6 C 76 % 1006,9 hPa 0,0 mm 6,4 km/h (2 Bft) S-SO 158 0 min 0 UV-I 0 W/m 22,5 km/h (4 Bft)
18.02.2021 19:00 8,7 C 76 % 1006,8 hPa 0,0 mm 4,8 km/h (1 Bft) SO 135 0 min 0 UV-I 0 W/m 17,7 km/h (3 Bft)
18.02.2021 19:10 8,7 C 75 % 1006,6 hPa 0,0 mm 6,4 km/h (2 Bft) S-SO 158 0 min 0 UV-I 0 W/m 20,9 km/h (4 Bft)
18.02.2021 19:20 8,8 C 75 % 1006,7 hPa 0,0 mm 6,4 km/h (2 Bft) S-SO 158 0 min 0 UV-I 0 W/m 24,1 km/h (4 Bft)
18.02.2021 19:30 9,0 C 74 % 1006,7 hPa 0,0 mm 4,8 km/h (1 Bft) SO 135 0 min 0 UV-I 0 W/m 17,7 km/h (3 Bft)
18.02.2021 19:40 9,1 C 74 % 1006,7 hPa 0,0 mm 4,8 km/h (1 Bft) S 180 0 min 0 UV-I 0 W/m 17,7 km/h (3 Bft)
18.02.2021 19:50 9,2 C 73 % 1006,8 hPa 0,0 mm 3,2 km/h (1 Bft) S-SO 158 0 min 0 UV-I 0 W/m 19,3 km/h (3 Bft)
18.02.2021 20:00 9,3 C 72 % 1006,8 hPa 0,0 mm 4,8 km/h (1 Bft) S 180 0 min 0 UV-I 0 W/m 19,3 km/h (3 Bft)
18.02.2021 20:10 9,4 C 71 % 1006,7 hPa 0,0 mm 4,8 km/h (1 Bft) S-SW 203 0 min 0 UV-I 0 W/m 17,7 km/h (3 Bft)
18.02.2021 20:20 9,6 C 70 % 1006,7 hPa 0,0 mm 3,2 km/h (1 Bft) S-SW 203 0 min 0 UV-I 0 W/m 14,5 km/h (3 Bft)
18.02.2021 20:30 9,7 C 71 % 1006,9 hPa 0,0 mm 4,8 km/h (1 Bft) S 180 0 min 0 UV-I 0 W/m 19,3 km/h (3 Bft)
18.02.2021 20:40 9,9 C 73 % 1007,1 hPa 0,3 mm 3,2 km/h (1 Bft) S-SW 203 0 min 0 UV-I 0 W/m 17,7 km/h (3 Bft)
18.02.2021 20:50 9,8 C 75 % 1007,2 hPa 0,0 mm 1,6 km/h (1 Bft) S-SO 158 0 min 0 UV-I 0 W/m 11,3 km/h (2 Bft)
18.02.2021 21:00 9,7 C 76 % 1007,2 hPa 0,3 mm 1,6 km/h (1 Bft) S 180 0 min 0 UV-I 0 W/m 14,5 km/h (3 Bft)
18.02.2021 21:10 9,4 C 78 % 1007,2 hPa 0,0 mm 1,6 km/h (1 Bft) S 180 0 min 0 UV-I 0 W/m 9,7 km/h (2 Bft)
18.02.2021 21:20 9,3 C 78 % 1007,3 hPa 0,0 mm 0,0 km/h (0 Bft) N 0 0 min 0 UV-I 0 W/m 8,0 km/h (2 Bft)
18.02.2021 21:30 9,1 C 79 % 1007,5 hPa 0,0 mm 0,0 km/h (0 Bft) N 0 0 min 0 UV-I 0 W/m 0,0 km/h (0 Bft)
18.02.2021 21:40 9,0 C 80 % 1007,7 hPa 0,3 mm 0,0 km/h (0 Bft) N 0 0 min 0 UV-I 0 W/m 0,0 km/h (0 Bft)
18.02.2021 21:50 8,9 C 81 % 1007,7 hPa 0,0 mm 0,0 km/h (0 Bft) N 0 0 min 0 UV-I 0 W/m 6,4 km/h (2 Bft)
18.02.2021 22:00 8,7 C 83 % 1007,8 hPa 0,0 mm 0,0 km/h (0 Bft) N 0 0 min 0 UV-I 0 W/m 0,0 km/h (0 Bft)
18.02.2021 22:10 8,6 C 84 % 1007,8 hPa 0,3 mm 0,0 km/h (0 Bft) N 0 0 min 0 UV-I 0 W/m 6,4 km/h (2 Bft)
18.02.2021 22:20 8,6 C 84 % 1007,9 hPa 0,0 mm 0,0 km/h (0 Bft) N 0 0 min 0 UV-I 0 W/m 0,0 km/h (0 Bft)
18.02.2021 22:30 8,5 C 85 % 1007,9 hPa 0,0 mm 0,0 km/h (0 Bft) N 0 0 min 0 UV-I 0 W/m 4,8 km/h (1 Bft)
18.02.2021 22:40 8,4 C 86 % 1008,1 hPa 0,0 mm 0,0 km/h (0 Bft) N 0 0 min 0 UV-I 0 W/m 8,0 km/h (2 Bft)
18.02.2021 22:50 8,4 C 87 % 1008,1 hPa 0,0 mm 0,0 km/h (0 Bft) N 0 0 min 0 UV-I 0 W/m 3,2 km/h (1 Bft)
18.02.2021 23:00 8,3 C 87 % 1008,6 hPa 0,0 mm 1,6 km/h (1 Bft) S-SW 203 0 min 0 UV-I 0 W/m 17,7 km/h (3 Bft)
18.02.2021 23:10 8,4 C 88 % 1009,1 hPa 0,3 mm 17,7 km/h (3 Bft) W-SW 248 0 min 0 UV-I 0 W/m 38,6 km/h (5 Bft)
18.02.2021 23:20 8,3 C 86 % 1009,4 hPa 0,0 mm 12,9 km/h (3 Bft) SW 225 0 min 0 UV-I 0 W/m 41,8 km/h (6 Bft)
18.02.2021 23:30 8,1 C 85 % 1009,6 hPa 0,0 mm 6,4 km/h (2 Bft) W 270 0 min 0 UV-I 0 W/m 32,2 km/h (5 Bft)
18.02.2021 23:40 7,8 C 85 % 1009,8 hPa 0,0 mm 4,8 km/h (1 Bft) W 270 0 min 0 UV-I 0 W/m 19,3 km/h (3 Bft)
18.02.2021 23:50 7,6 C 85 % 1010,2 hPa 0,0 mm 3,2 km/h (1 Bft) W-SW 248 0 min 0 UV-I 0 W/m 11,3 km/h (2 Bft)
_ Min-Zeit 08:10 20:20 19:10 - 00:00 - - - - - 00:00
Minimum _ 5,0 C 70 % 1006,6 hPa - 0,0 km/h (0 Bft) - - - - - 0,0 km/h (0 Bft)
_ Max-Zeit 20:40 06:00 00:00 18:00 23:10 - - 00:00 13:00 13:00 23:20
Maximum _ 9,9 C 89 % 1017,5 hPa 0,3 mm 17,7 km/h
W-SW (3 Bft)
- - 0 min 1 UV-I 216 W/m 41,8 km/h
SW (6 Bft)
Durchschnitt _ 7,6 C 81 % 1012,2 hPa #1,5 mm 3,1 km/h (1 Bft) SO - #0 min. 1 UV-I 102 W/m 12,7 km/h (3 Bft)